Time;durP1;ratioP1;P1;durP2;ratioP2;P2;SDS_P1;SDS_P2;PMS_P1;PMS_P2;Temp;Humidity;BMP_temperature;BMP_pressure;BME280_temperature;BME280_humidity;BME280_pressure;Samples;Min_cycle;Max_cycle;Signal;HPM_P1;HPM_P2
2021/05/14 00:00:27;;;;;;;1.30;1.20;;;;;;;10.46;70.14;95951.03;5032615;28;20229;-65
2021/05/14 00:02:53;;;;;;;1.20;1.20;;;;;;;10.41;70.42;95951.78;5029858;28;20221;-65
2021/05/14 00:05:19;;;;;;;1.30;1.30;;;;;;;10.27;71.03;95949.75;5032048;28;20190;-65
2021/05/14 00:07:45;;;;;;;0.97;0.97;;;;;;;10.27;70.91;95953.16;5033171;28;20277;-64
2021/05/14 00:10:12;;;;;;;1.30;1.30;;;;;;;10.18;70.84;95954.66;5032399;28;20233;-64
2021/05/14 00:12:38;;;;;;;1.37;1.37;;;;;;;10.26;70.59;95956.81;5033136;28;20192;-64
2021/05/14 00:15:05;;;;;;;2.23;1.10;;;;;;;10.26;70.50;95956.03;5032388;28;20198;-65
2021/05/14 00:17:30;;;;;;;1.10;1.10;;;;;;;10.28;70.76;95946.09;5015082;28;20656;-64
2021/05/14 00:19:55;;;;;;;1.60;1.10;;;;;;;10.24;70.33;95953.69;5033051;28;20179;-65
2021/05/14 00:22:21;;;;;;;1.20;1.10;;;;;;;10.25;70.62;95954.47;5031432;28;20643;-65
2021/05/14 00:24:47;;;;;;;1.20;1.20;;;;;;;10.20;70.71;95954.38;5015254;28;20213;-65
2021/05/14 00:27:13;;;;;;;1.10;1.10;;;;;;;10.27;70.42;95949.75;5032093;28;20218;-65
2021/05/14 00:29:39;;;;;;;1.30;1.20;;;;;;;10.35;69.98;95955.38;5032717;28;20194;-65
2021/05/14 00:32:05;;;;;;;1.50;1.40;;;;;;;10.29;70.78;95953.72;5033028;28;20560;-65
2021/05/14 00:34:30;;;;;;;1.13;1.13;;;;;;;10.35;70.21;95949.34;5031913;28;20300;-64
2021/05/14 00:36:55;;;;;;;1.20;1.10;;;;;;;10.24;71.40;95939.78;5032908;28;20647;-65
2021/05/14 00:39:21;;;;;;;1.30;1.30;;;;;;;10.28;70.99;95940.88;5013927;28;20198;-65
2021/05/14 00:41:46;;;;;;;1.30;1.20;;;;;;;10.26;71.30;95948.16;5032406;28;20261;-65
2021/05/14 00:44:27;;;;;;;1.30;1.30;;;;;;;10.30;71.28;95941.44;5014032;28;20619;-65
2021/05/14 00:46:52;;;;;;;1.20;1.20;;;;;;;10.33;70.51;95941.72;5014849;28;20178;-65
2021/05/14 00:49:18;;;;;;;1.23;1.23;;;;;;;10.23;71.07;95946.06;5031381;28;20269;-65
2021/05/14 00:51:44;;;;;;;1.57;1.30;;;;;;;10.18;71.20;95938.13;5032625;28;20632;-64
2021/05/14 00:54:09;;;;;;;1.30;1.30;;;;;;;10.19;71.03;95942.34;5031704;28;20265;-64
2021/05/14 00:56:35;;;;;;;1.50;1.50;;;;;;;10.01;71.42;95946.03;5032684;28;20618;-65
2021/05/14 00:59:01;;;;;;;1.10;1.10;;;;;;;9.96;72.20;95946.75;5032124;28;20190;-65
2021/05/14 01:01:26;;;;;;;1.20;1.20;;;;;;;10.05;71.75;95944.50;5030987;28;20284;-65
2021/05/14 01:03:52;;;;;;;1.30;1.30;;;;;;;10.14;71.66;95944.88;5032070;28;20213;-65
2021/05/14 01:06:17;;;;;;;1.40;1.30;;;;;;;10.09;71.50;95940.34;5012566;28;20186;-64
2021/05/14 01:08:42;;;;;;;1.40;1.40;;;;;;;10.09;71.57;95939.56;5031856;28;20597;-64
2021/05/14 01:11:08;;;;;;;1.50;1.43;;;;;;;10.19;71.31;95942.34;5031729;28;20183;-64
2021/05/14 01:13:33;;;;;;;1.20;1.20;;;;;;;10.08;71.83;95945.84;5029086;28;20830;-65
2021/05/14 01:15:58;;;;;;;1.40;1.30;;;;;;;10.05;71.66;95952.34;5014428;28;20187;-65
2021/05/14 01:18:24;;;;;;;1.30;1.30;;;;;;;10.09;71.56;95942.97;5031103;28;20212;-65
2021/05/14 01:20:49;;;;;;;3.57;1.30;;;;;;;10.08;71.32;95941.41;5031377;28;20248;-65
2021/05/14 01:23:15;;;;;;;1.20;1.20;;;;;;;10.05;71.84;95941.88;5030995;28;20317;-65
2021/05/14 01:25:41;;;;;;;1.30;1.27;;;;;;;10.04;71.53;95940.28;5031784;28;20182;-65
2021/05/14 01:28:06;;;;;;;1.20;1.20;;;;;;;9.96;72.07;95938.13;5031336;28;20265;-65
2021/05/14 01:30:31;;;;;;;1.20;1.20;;;;;;;10.00;71.80;95936.59;5031087;28;20182;-65
2021/05/14 01:32:57;;;;;;;1.20;1.20;;;;;;;9.97;72.17;95935.22;5032061;28;20186;-65
2021/05/14 01:35:22;;;;;;;1.37;1.27;;;;;;;9.93;72.31;95941.19;5030645;28;20198;-65
2021/05/14 01:37:48;;;;;;;1.30;1.30;;;;;;;9.95;72.40;95932.09;5031636;28;20267;-65
2021/05/14 01:40:13;;;;;;;1.50;1.40;;;;;;;9.96;71.98;95931.06;5030512;28;20544;-65
2021/05/14 01:42:44;;;;;;;1.67;1.57;;;;;;;9.95;72.76;95928.66;5031434;28;20623;-65
2021/05/14 01:45:10;;;;;;;1.30;1.30;;;;;;;9.96;72.33;95936.28;5016371;28;20205;-63
2021/05/14 01:47:35;;;;;;;2.30;1.20;;;;;;;9.93;72.70;95933.34;5031188;28;20274;-65
2021/05/14 01:50:00;;;;;;;1.17;1.17;;;;;;;9.91;72.80;95932.81;5031659;28;20628;-65
2021/05/14 01:52:26;;;;;;;1.20;1.20;;;;;;;9.95;72.33;95933.91;5030573;28;20655;-65
2021/05/14 01:54:51;;;;;;;1.30;1.30;;;;;;;9.94;72.86;95935.72;5030419;28;20220;-65
2021/05/14 01:57:17;;;;;;;1.30;1.30;;;;;;;9.97;73.08;95930.00;5012604;28;20216;-65
2021/05/14 01:59:42;;;;;;;1.40;1.40;;;;;;;9.94;73.34;95934.94;5031096;28;20186;-65
2021/05/14 02:02:07;;;;;;;1.40;1.30;;;;;;;9.93;73.50;95935.97;5031464;28;20226;-65
2021/05/14 02:04:33;;;;;;;1.17;1.17;;;;;;;9.95;73.52;95926.06;5030128;28;20194;-65
2021/05/14 02:06:58;;;;;;;1.47;1.37;;;;;;;9.87;73.68;95927.25;5031050;28;20312;-64
2021/05/14 02:09:24;;;;;;;2.50;1.33;;;;;;;9.85;73.83;95929.34;5030520;28;20182;-65
2021/05/14 02:11:49;;;;;;;1.40;1.30;;;;;;;9.75;73.99;95923.19;5031041;28;20198;-64
2021/05/14 02:14:14;;;;;;;1.33;1.33;;;;;;;9.67;74.23;95921.78;5029946;28;20659;-64
2021/05/14 02:16:40;;;;;;;1.30;1.30;;;;;;;9.66;74.81;95930.66;5031390;28;20194;-64
2021/05/14 02:19:05;;;;;;;1.10;1.10;;;;;;;9.61;74.60;95925.34;5030650;28;20193;-64
2021/05/14 02:21:30;;;;;;;1.70;1.20;;;;;;;9.64;74.47;95932.72;5012226;28;20646;-64
2021/05/14 02:23:56;;;;;;;1.40;1.30;;;;;;;9.54;75.29;95928.13;5031230;28;20183;-64
2021/05/14 02:26:21;;;;;;;2.70;1.23;;;;;;;9.44;74.88;95922.78;5029891;28;20234;-65
2021/05/14 02:28:47;;;;;;;1.97;1.43;;;;;;;9.42;75.75;95931.88;5031011;28;20185;-64
2021/05/14 02:31:12;;;;;;;1.27;1.27;;;;;;;9.51;75.43;95925.22;5012816;28;20205;-65
2021/05/14 02:33:37;;;;;;;1.50;1.50;;;;;;;9.52;74.98;95921.56;5030982;28;20183;-64
2021/05/14 02:36:03;;;;;;;3.03;1.40;;;;;;;9.52;75.27;95932.84;5030832;28;20636;-64
2021/05/14 02:38:29;;;;;;;1.37;1.37;;;;;;;9.41;76.04;95930.31;5029905;28;20202;-63
2021/05/14 02:40:54;;;;;;;1.30;1.20;;;;;;;9.38;76.23;95928.16;5012768;28;20218;-63
2021/05/14 02:43:20;;;;;;;1.30;1.30;;;;;;;9.38;76.24;95922.94;5030364;28;20186;-63
2021/05/14 02:45:45;;;;;;;1.33;1.33;;;;;;;9.38;76.31;95925.53;5030943;28;20183;-63
2021/05/14 02:48:11;;;;;;;1.33;1.23;;;;;;;9.45;75.72;95928.78;5030762;28;20189;-63
2021/05/14 02:50:36;;;;;;;1.90;1.50;;;;;;;9.43;75.79;95931.63;5030082;28;20691;-63
2021/05/14 02:53:03;;;;;;;1.43;1.33;;;;;;;9.41;76.47;95931.09;5030237;28;20293;-63
2021/05/14 02:55:28;;;;;;;1.33;1.30;;;;;;;9.38;76.09;95926.34;5029950;28;20702;-64
2021/05/14 02:57:53;;;;;;;1.77;1.67;;;;;;;9.41;75.69;95933.72;5030795;28;20190;-64
2021/05/14 03:00:21;;;;;;;1.40;1.40;;;;;;;9.48;75.83;95929.09;5012037;28;20261;-64
2021/05/14 03:02:46;;;;;;;1.60;1.60;;;;;;;9.50;75.82;95932.28;5030884;28;20736;-64
2021/05/14 03:05:12;;;;;;;1.33;1.20;;;;;;;9.39;76.04;95934.97;5029348;28;20214;-64
2021/05/14 03:07:38;;;;;;;1.20;1.20;;;;;;;9.39;76.20;95927.94;5031110;28;20182;-64
2021/05/14 03:10:05;;;;;;;1.50;1.40;;;;;;;9.43;76.14;95933.47;5020038;28;20282;-64
2021/05/14 03:12:30;;;;;;;1.23;1.23;;;;;;;9.29;76.36;95927.78;5032216;28;20252;-63
2021/05/14 03:14:56;;;;;;;1.50;1.40;;;;;;;9.22;77.01;95928.97;5033624;28;20211;-64
2021/05/14 03:17:21;;;;;;;1.37;1.37;;;;;;;9.31;76.67;95924.91;5033198;28;20236;-64
2021/05/14 03:19:46;;;;;;;1.60;1.50;;;;;;;9.35;76.73;95928.66;5033924;28;20189;-64
2021/05/14 03:22:12;;;;;;;1.30;1.30;;;;;;;9.42;76.30;95930.06;5016047;28;20179;-64
2021/05/14 03:24:37;;;;;;;1.83;1.73;;;;;;;9.37;76.27;95937.03;5033205;28;20703;-64
2021/05/14 03:27:03;;;;;;;1.40;1.30;;;;;;;9.31;76.11;95930.13;5034288;28;20201;-63
2021/05/14 03:29:28;;;;;;;1.33;1.23;;;;;;;9.24;76.51;95932.16;5033205;28;20183;-64
2021/05/14 03:31:54;;;;;;;1.57;1.47;;;;;;;9.27;75.73;95929.03;5033734;28;20565;-64
2021/05/14 03:34:19;;;;;;;1.40;1.30;;;;;;;9.17;75.49;95935.72;5033118;28;20205;-64
2021/05/14 03:36:44;;;;;;;1.50;1.40;;;;;;;9.05;76.28;95923.75;5033870;28;20627;-64
2021/05/14 03:39:10;;;;;;;1.90;1.57;;;;;;;9.05;75.50;95927.16;5016168;28;20189;-63
2021/05/14 03:41:51;;;;;;;1.53;1.47;;;;;;;9.00;76.05;95927.06;5032802;28;20707;-63
2021/05/14 03:44:17;;;;;;;1.50;1.40;;;;;;;9.06;76.08;95933.16;5032602;28;20174;-64
2021/05/14 03:46:43;;;;;;;1.30;1.30;;;;;;;9.12;75.40;95930.41;5033849;28;20297;-64
2021/05/14 03:49:08;;;;;;;1.67;1.57;;;;;;;9.03;76.18;95929.19;5034024;28;20190;-63
2021/05/14 03:51:35;;;;;;;1.40;1.30;;;;;;;8.92;76.52;95926.66;5033343;28;20232;-63
2021/05/14 03:54:01;;;;;;;1.40;1.40;;;;;;;8.93;76.35;95928.25;5033256;28;20241;-64
2021/05/14 03:56:27;;;;;;;1.30;1.30;;;;;;;8.89;76.66;95927.16;5014732;28;20225;-64
2021/05/14 03:58:52;;;;;;;1.20;1.20;;;;;;;8.75;76.86;95932.66;5033330;28;20206;-64
2021/05/14 04:01:18;;;;;;;1.30;1.30;;;;;;;8.80;76.54;95933.78;5032313;28;20331;-64
2021/05/14 04:03:43;;;;;;;1.23;1.23;;;;;;;8.85;76.21;95931.28;5033592;28;20225;-64
2021/05/14 04:06:09;;;;;;;1.80;1.70;;;;;;;8.82;75.99;95934.34;5032150;28;20260;-63
2021/05/14 04:08:34;;;;;;;1.30;1.30;;;;;;;8.84;75.76;95933.09;5014908;28;20171;-64
2021/05/14 04:16:11;;;;;;;1.50;1.50;;;;;;;9.00;75.20;95926.28;5032827;28;20547;-64
2021/05/14 04:18:38;;;;;;;1.57;1.47;;;;;;;8.91;75.79;95919.88;5032364;28;20187;-64
2021/05/14 04:21:05;;;;;;;1.37;1.37;;;;;;;9.11;75.07;95922.78;5032492;28;20190;-64
2021/05/14 04:23:30;;;;;;;1.50;1.40;;;;;;;9.18;74.61;95923.44;5032085;28;20252;-64
2021/05/14 04:25:56;;;;;;;1.23;1.23;;;;;;;9.13;74.66;95932.00;5032965;28;20191;-64
2021/05/14 04:28:22;;;;;;;1.57;1.30;;;;;;;9.12;75.12;95933.03;5032085;28;20240;-64
2021/05/14 04:30:47;;;;;;;3.03;1.73;;;;;;;8.87;75.99;95932.59;5017444;28;20660;-64
2021/05/14 04:33:13;;;;;;;1.77;1.67;;;;;;;8.91;76.05;95927.72;5032680;28;20221;-64
2021/05/14 04:35:38;;;;;;;1.73;1.67;;;;;;;9.13;75.54;95923.34;5031938;28;20213;-65
2021/05/14 04:38:04;;;;;;;1.50;1.40;;;;;;;9.10;75.68;95921.22;5032728;28;20607;-64
2021/05/14 04:40:29;;;;;;;1.80;1.70;;;;;;;9.01;75.71;95926.06;5031953;28;20187;-64
2021/05/14 04:43:02;;;;;;;1.50;1.40;;;;;;;9.28;74.60;95933.25;5032379;28;20187;-65
2021/05/14 04:45:28;;;;;;;1.47;1.33;;;;;;;9.38;74.23;95934.19;5031902;28;20271;-64
2021/05/14 04:47:53;;;;;;;1.40;1.30;;;;;;;9.33;74.46;95934.13;5032533;28;20186;-64
2021/05/14 04:50:19;;;;;;;1.23;1.23;;;;;;;9.53;74.24;95933.59;5031632;28;20202;-64
2021/05/14 04:52:46;;;;;;;1.57;1.47;;;;;;;9.91;72.58;95943.28;5032337;28;20678;-64
2021/05/14 04:55:13;;;;;;;1.50;1.40;;;;;;;10.44;70.91;95934.75;5032101;28;20206;-64
2021/05/14 04:57:39;;;;;;;1.30;1.30;;;;;;;10.85;69.29;95935.94;5031913;28;20178;-64
2021/05/14 05:00:05;;;;;;;1.30;1.30;;;;;;;11.20;67.28;95932.84;5031945;28;20661;-64
2021/05/14 05:02:32;;;;;;;1.13;1.00;;;;;;;11.50;66.41;95934.88;5031137;28;20579;-64
2021/05/14 05:04:58;;;;;;;1.20;1.10;;;;;;;11.59;65.15;95936.75;5031852;28;20193;-64
2021/05/14 05:07:30;;;;;;;1.27;1.17;;;;;;;12.03;64.12;95936.50;5031451;28;20269;-64
2021/05/14 05:09:55;;;;;;;1.23;1.13;;;;;;;12.20;63.46;95937.13;5032262;28;20175;-64
2021/05/14 05:12:21;;;;;;;1.07;1.07;;;;;;;12.67;62.20;95936.97;5030988;28;20193;-64
2021/05/14 05:14:47;;;;;;;0.83;0.83;;;;;;;12.80;61.47;95935.69;5031641;28;20198;-64
2021/05/14 05:17:12;;;;;;;0.97;0.97;;;;;;;13.05;60.42;95940.16;5032141;28;20544;-64
2021/05/14 05:19:38;;;;;;;0.93;0.93;;;;;;;13.27;60.40;95935.47;5030791;28;20222;-64
2021/05/14 05:22:03;;;;;;;0.80;0.80;;;;;;;13.14;60.22;95943.91;5031777;28;20644;-63
2021/05/14 05:24:28;;;;;;;1.17;1.10;;;;;;;13.26;59.47;95942.56;5031022;28;20183;-62
2021/05/14 05:26:54;;;;;;;1.00;1.00;;;;;;;13.33;61.79;95944.94;5032033;28;20293;-63
2021/05/14 05:29:19;;;;;;;1.10;0.93;;;;;;;13.36;60.35;95943.63;5031089;28;20187;-63
2021/05/14 05:31:44;;;;;;;0.70;0.70;;;;;;;13.40;60.56;95939.41;5014373;28;20214;-63
2021/05/14 05:34:10;;;;;;;1.00;1.00;;;;;;;13.58;59.12;95950.19;5030613;28;20225;-62
2021/05/14 05:36:35;;;;;;;0.80;0.80;;;;;;;13.76;58.49;95956.75;5013258;28;20182;-62
2021/05/14 05:39:02;;;;;;;0.80;0.80;;;;;;;13.83;58.54;95944.06;5031472;28;20233;-62
2021/05/14 05:41:27;;;;;;;0.80;0.80;;;;;;;13.58;59.12;95949.41;5030797;28;20586;-63
2021/05/14 05:43:54;;;;;;;1.10;1.10;;;;;;;13.59;59.80;95953.63;5031387;28;20247;-62
2021/05/14 05:46:20;;;;;;;0.90;0.90;;;;;;;13.69;61.11;95954.38;5030254;28;20285;-63
2021/05/14 05:48:46;;;;;;;0.90;0.90;;;;;;;13.54;60.42;95954.38;5031545;28;20244;-62
2021/05/14 05:51:13;;;;;;;0.97;0.80;;;;;;;13.96;58.90;95954.06;5009715;28;20546;-61
2021/05/14 05:53:38;;;;;;;0.80;0.80;;;;;;;13.89;59.01;95952.75;5029394;28;20240;-61
2021/05/14 05:56:05;;;;;;;0.80;0.80;;;;;;;14.03;58.72;95956.41;5030931;28;20179;-62
2021/05/14 05:58:31;;;;;;;1.00;1.00;;;;;;;14.36;58.03;95958.41;5030425;28;20320;-62
2021/05/14 06:00:57;;;;;;;0.70;0.70;;;;;;;14.50;57.21;95969.94;5030813;28;20226;-62
2021/05/14 06:03:23;;;;;;;0.80;0.80;;;;;;;14.24;58.21;95970.31;5030260;28;20205;-62
2021/05/14 06:05:49;;;;;;;3.10;0.90;;;;;;;14.24;57.84;95975.56;5030816;28;20195;-62
2021/05/14 06:08:14;;;;;;;0.77;0.77;;;;;;;14.05;58.93;95978.00;5031004;28;20551;-62
2021/05/14 06:10:42;;;;;;;0.70;0.70;;;;;;;14.30;57.80;95979.78;5030538;28;20193;-62
2021/05/14 06:13:07;;;;;;;0.70;0.70;;;;;;;14.42;57.28;95978.44;5029982;28;20648;-62
2021/05/14 06:15:32;;;;;;;1.13;0.80;;;;;;;14.40;57.31;95977.91;5009034;28;20203;-62
2021/05/14 06:17:58;;;;;;;0.70;0.70;;;;;;;14.52;57.44;95967.06;5020107;28;20257;-62
2021/05/14 06:20:25;;;;;;;0.70;0.70;;;;;;;14.69;56.56;95982.53;5023857;28;20607;-62
2021/05/14 06:22:51;;;;;;;0.70;0.70;;;;;;;14.96;56.05;95978.41;5029052;28;20517;-62
2021/05/14 06:25:18;;;;;;;0.70;0.70;;;;;;;15.05;55.38;95983.88;5029510;28;20201;-63
2021/05/14 06:27:44;;;;;;;0.60;0.60;;;;;;;15.12;55.43;95986.22;5012508;28;20225;-62
2021/05/14 06:30:10;;;;;;;0.57;0.57;;;;;;;15.22;55.60;95983.50;5030613;28;20450;-62
2021/05/14 06:32:35;;;;;;;0.70;0.70;;;;;;;15.10;55.54;95988.38;5029622;28;20182;-62
2021/05/14 06:35:01;;;;;;;1.23;0.90;;;;;;;13.71;59.68;95983.06;5030458;28;20543;-62
2021/05/14 06:37:26;;;;;;;1.53;0.90;;;;;;;13.55;60.38;95990.19;5029859;28;20324;-62
2021/05/14 06:39:52;;;;;;;0.97;0.97;;;;;;;13.15;61.72;95988.34;5030632;28;20179;-62
2021/05/14 06:42:17;;;;;;;2.23;1.10;;;;;;;13.18;62.47;95990.47;5029828;28;20179;-62
2021/05/14 06:44:43;;;;;;;0.80;0.80;;;;;;;13.36;61.74;95993.63;5030364;28;20183;-62
2021/05/14 06:47:08;;;;;;;1.00;1.00;;;;;;;13.63;61.28;95994.94;5033592;28;20174;-62
2021/05/14 06:49:34;;;;;;;1.10;1.00;;;;;;;13.84;60.28;95987.78;5033969;28;20193;-62
2021/05/14 06:51:59;;;;;;;1.30;1.20;;;;;;;13.73;60.80;95991.50;5034627;28;20195;-62
2021/05/14 06:54:25;;;;;;;1.20;1.00;;;;;;;13.94;60.44;95992.25;5033148;28;20205;-63
2021/05/14 06:56:51;;;;;;;1.90;1.07;;;;;;;14.04;59.56;95989.63;5016418;28;20175;-62
2021/05/14 06:59:20;;;;;;;0.70;0.70;;;;;;;13.93;58.60;95988.06;5033035;28;20202;-63
2021/05/14 07:01:45;;;;;;;0.70;0.70;;;;;;;14.48;58.28;95993.19;5033808;28;20222;-62
2021/05/14 07:04:11;;;;;;;0.80;0.80;;;;;;;14.49;58.13;96000.00;5033802;28;20265;-62
2021/05/14 07:06:37;;;;;;;0.60;0.60;;;;;;;14.45;56.50;95998.19;5032725;28;20627;-62
2021/05/14 07:09:04;;;;;;;0.77;0.40;;;;;;;14.95;55.12;96007.72;5033713;28;20194;-63
2021/05/14 07:11:29;;;;;;;0.60;0.60;;;;;;;15.13;54.94;95995.72;5033229;28;20209;-63
2021/05/14 07:13:54;;;;;;;0.73;0.70;;;;;;;15.22;53.58;96005.41;5034646;28;20654;-63
2021/05/14 07:16:20;;;;;;;0.57;0.53;;;;;;;14.80;54.22;96008.59;5015420;28;20197;-63
2021/05/14 07:18:45;;;;;;;0.73;0.70;;;;;;;14.62;54.70;96011.84;5029870;28;20217;-62
2021/05/14 07:21:11;;;;;;;0.97;0.97;;;;;;;15.02;55.03;96000.28;5034578;28;20179;-63
2021/05/14 07:23:36;;;;;;;0.87;0.87;;;;;;;14.73;56.91;96005.44;5033490;28;20346;-63
2021/05/14 07:26:02;;;;;;;1.17;0.87;;;;;;;14.65;57.38;96000.75;5034058;28;20237;-63
2021/05/14 07:28:27;;;;;;;0.80;0.80;;;;;;;14.12;57.87;96004.84;5033111;28;20209;-62
2021/05/14 07:30:53;;;;;;;0.80;0.80;;;;;;;13.65;59.72;95997.31;5033120;28;20179;-63
2021/05/14 07:33:18;;;;;;;0.80;0.80;;;;;;;13.51;60.44;96007.59;5019774;28;20762;-61
2021/05/14 07:35:44;;;;;;;1.00;1.00;;;;;;;13.27;61.13;96004.69;5033266;28;20203;-61
2021/05/14 07:38:10;;;;;;;0.87;0.87;;;;;;;13.46;60.71;96002.31;5033977;28;20261;-62
2021/05/14 07:40:35;;;;;;;1.73;1.30;;;;;;;13.50;60.75;96003.38;5024188;28;20179;-62
2021/05/14 07:43:01;;;;;;;1.03;0.90;;;;;;;13.19;62.58;96005.22;5015571;28;20190;-62
2021/05/14 07:45:27;;;;;;;1.10;1.10;;;;;;;13.09;62.35;96007.81;5032038;28;20221;-63
2021/05/14 07:47:52;;;;;;;1.10;1.00;;;;;;;13.13;62.97;96006.25;5032873;28;20206;-61
2021/05/14 07:50:18;;;;;;;1.13;1.10;;;;;;;13.78;60.91;95999.41;5032495;28;20302;-62
2021/05/14 07:52:45;;;;;;;1.00;1.00;;;;;;;13.99;60.10;96002.78;5033647;28;20190;-62
2021/05/14 07:55:11;;;;;;;1.30;0.90;;;;;;;13.60;61.14;96003.34;5032519;28;20712;-62
2021/05/14 07:57:36;;;;;;;1.30;1.20;;;;;;;13.84;59.77;96008.06;5014692;28;20203;-62
2021/05/14 08:00:03;;;;;;;4.03;2.20;;;;;;;14.13;60.02;96007.25;5032251;28;20249;-62
2021/05/14 08:02:29;;;;;;;0.80;0.80;;;;;;;13.91;59.03;96005.97;5021389;28;20187;-62
2021/05/14 08:04:54;;;;;;;1.00;1.00;;;;;;;13.96;59.08;96000.69;5031630;28;20183;-62
2021/05/14 08:07:19;;;;;;;2.10;1.40;;;;;;;13.52;60.35;96000.47;5032218;28;20205;-63
2021/05/14 08:09:45;;;;;;;1.03;1.00;;;;;;;13.57;60.26;96006.53;5032390;28;20202;-62
2021/05/14 08:12:11;;;;;;;1.20;1.10;;;;;;;13.95;59.69;96005.16;5032055;28;20205;-62
2021/05/14 08:14:36;;;;;;;0.77;0.70;;;;;;;14.41;59.03;96002.44;5014177;28;20202;-65
2021/05/14 08:17:02;;;;;;;1.60;0.80;;;;;;;14.86;57.04;96009.34;5032048;28;20193;-63
2021/05/14 08:19:28;;;;;;;0.60;0.60;;;;;;;15.17;56.02;96007.31;5029471;28;20198;-62
2021/05/14 08:21:53;;;;;;;1.00;0.90;;;;;;;15.37;55.28;96010.63;5032935;28;20186;-62
2021/05/14 08:24:19;;;;;;;0.80;0.80;;;;;;;15.52;54.49;96008.94;5031992;28;20655;-62
2021/05/14 08:26:44;;;;;;;0.80;0.80;;;;;;;15.70;53.82;96010.91;5033062;28;20187;-61
2021/05/14 08:29:10;;;;;;;0.60;0.60;;;;;;;15.86;53.48;96011.56;5032984;28;20552;-62
2021/05/14 08:31:39;;;;;;;0.73;0.70;;;;;;;15.92;53.18;95998.00;5031385;28;20201;-62
2021/05/14 08:34:06;;;;;;;0.50;0.50;;;;;;;16.05;52.56;95999.97;5032570;28;20198;-62
2021/05/14 08:36:32;;;;;;;0.70;0.70;;;;;;;15.72;53.77;95998.97;5031971;28;20187;-60
2021/05/14 08:38:58;;;;;;;0.87;0.70;;;;;;;15.32;54.46;95997.41;5031384;28;20178;-63
2021/05/14 08:41:24;;;;;;;0.70;0.70;;;;;;;15.36;54.44;95995.81;5031539;28;20201;-63
2021/05/14 08:43:50;;;;;;;0.60;0.60;;;;;;;15.27;54.96;95996.66;5031985;28;20179;-62
2021/05/14 08:46:19;;;;;;;0.53;0.53;;;;;;;15.71;52.97;96004.56;5032126;28;20190;-63
2021/05/14 08:48:44;;;;;;;0.53;0.53;;;;;;;15.81;52.81;96001.81;5024452;28;20527;-62
2021/05/14 08:51:13;;;;;;;2.20;1.20;;;;;;;15.19;52.85;96000.69;5031225;28;20190;-63
2021/05/14 08:53:44;;;;;;;3.60;1.37;;;;;;;15.06;54.53;96001.31;5013851;28;20213;-62
2021/05/14 08:56:09;;;;;;;0.67;0.67;;;;;;;15.05;54.74;96006.84;5032081;28;20182;-63
2021/05/14 08:58:37;;;;;;;0.67;0.67;;;;;;;15.25;53.64;96004.09;5013258;28;20179;-63
2021/05/14 09:01:03;;;;;;;0.57;0.57;;;;;;;15.92;52.65;96003.31;5024459;28;20258;-63
2021/05/14 09:03:28;;;;;;;0.60;0.60;;;;;;;15.84;52.14;95998.59;5013912;28;20288;-62
2021/05/14 09:05:54;;;;;;;0.70;0.70;;;;;;;15.57;51.12;96006.25;5013811;28;20194;-62
2021/05/14 09:08:28;;;;;;;1.17;0.70;;;;;;;15.70;51.75;96006.41;5031353;28;20185;-63
2021/05/14 09:10:53;;;;;;;0.50;0.50;;;;;;;15.68;51.94;96005.09;5031305;28;20197;-62
2021/05/14 09:13:19;;;;;;;2.13;0.60;;;;;;;15.71;51.50;96007.19;5031273;28;20190;-63
2021/05/14 09:15:45;;;;;;;1.50;0.70;;;;;;;15.63;52.50;95995.38;5031292;28;20202;-62
2021/05/14 09:18:19;;;;;;;0.53;0.53;;;;;;;15.24;53.05;95992.75;5031454;28;20186;-62
2021/05/14 09:20:52;;;;;;;0.70;0.70;;;;;;;15.34;53.16;96000.59;5021016;28;20210;-62
2021/05/14 09:23:24;;;;;;;0.60;0.60;;;;;;;14.53;54.79;96002.91;5030968;28;20627;-62
2021/05/14 09:26:01;;;;;;;0.40;0.40;;;;;;;14.97;53.83;95998.47;5012999;28;20194;-62
2021/05/14 09:28:52;;;;;;;0.50;0.50;;;;;;;15.12;53.30;96002.06;5031448;28;20171;-62
2021/05/14 09:31:25;;;;;;;1.37;0.73;;;;;;;15.51;53.02;95989.63;5030851;28;20187;-62
2021/05/14 09:33:56;;;;;;;0.67;0.67;;;;;;;15.49;52.72;95998.91;5031166;28;20253;-62
2021/05/14 09:36:32;;;;;;;0.60;0.60;;;;;;;15.28;53.10;95999.03;5030620;28;20278;-62
2021/05/14 09:39:06;;;;;;;0.60;0.60;;;;;;;14.81;53.63;96002.25;5018853;28;20206;-62
2021/05/14 09:41:43;;;;;;;0.50;0.50;;;;;;;14.89;53.41;96003.50;5030571;28;20181;-62
2021/05/14 09:44:14;;;;;;;0.70;0.70;;;;;;;14.61;54.52;96004.19;5031475;28;20198;-62
2021/05/14 09:46:41;;;;;;;0.60;0.60;;;;;;;14.73;54.57;96007.28;5030717;28;20693;-62
2021/05/14 09:49:13;;;;;;;0.63;0.60;;;;;;;15.02;57.20;96010.03;5013888;28;20187;-62
2021/05/14 09:51:46;;;;;;;0.80;0.80;;;;;;;14.38;65.28;96006.38;5030497;28;20183;-62
2021/05/14 09:54:24;;;;;;;0.90;0.90;;;;;;;13.77;69.52;96013.63;5007051;28;20309;-62
2021/05/14 09:59:53;;;;;;;1.30;0.77;;;;;;;12.51;82.13;96014.22;5030637;28;20217;-62
2021/05/14 10:02:25;;;;;;;1.20;1.10;;;;;;;12.48;83.55;96009.47;5030570;28;20241;-62
2021/05/14 10:04:51;;;;;;;1.07;1.03;;;;;;;12.53;81.27;96000.81;5030258;28;20565;-62
2021/05/14 10:07:17;;;;;;;0.93;0.93;;;;;;;12.37;78.85;96005.22;5030492;28;20190;-63
2021/05/14 10:09:46;;;;;;;1.10;1.10;;;;;;;12.66;79.53;96008.22;5031014;28;20186;-63
2021/05/14 10:12:13;;;;;;;1.90;1.80;;;;;;;12.81;77.38;96006.44;5013189;28;20217;-63
2021/05/14 10:14:39;;;;;;;1.80;0.90;;;;;;;12.75;77.39;95998.78;5030457;28;20213;-63
2021/05/14 10:17:06;;;;;;;0.90;0.90;;;;;;;12.83;71.80;96003.53;5029784;28;20631;-63
2021/05/14 10:19:34;;;;;;;1.40;1.00;;;;;;;12.75;70.77;96006.69;5030718;28;20221;-63
2021/05/14 10:21:59;;;;;;;0.80;0.80;;;;;;;12.77;68.79;96002.72;5036981;28;20197;-63
2021/05/14 10:24:53;;;;;;;1.03;1.00;;;;;;;13.09;72.07;96002.53;5019328;28;20186;-63
2021/05/14 10:27:24;;;;;;;1.03;0.80;;;;;;;13.31;66.43;96005.75;5028416;28;20273;-64
2021/05/14 10:29:59;;;;;;;2.00;0.80;;;;;;;13.10;66.40;96006.72;5019535;28;20198;-63
2021/05/14 10:32:39;;;;;;;0.83;0.83;;;;;;;13.03;71.33;96000.94;5036241;28;20178;-63
2021/05/14 10:35:07;;;;;;;4.00;1.00;;;;;;;12.88;75.53;96014.84;5019603;28;20197;-63
2021/05/14 10:37:52;;;;;;;1.33;1.23;;;;;;;13.01;77.11;96012.78;5036599;28;20185;-63
2021/05/14 10:40:41;;;;;;;1.00;1.00;;;;;;;13.07;81.83;96007.25;5036254;28;20687;-64
2021/05/14 10:43:11;;;;;;;1.20;1.20;;;;;;;13.01;84.91;96023.28;5037565;28;20218;-61
2021/05/14 10:45:39;;;;;;;1.10;1.10;;;;;;;12.95;84.90;96029.59;5018552;28;20178;-61
2021/05/14 10:48:19;;;;;;;0.90;0.90;;;;;;;12.61;78.03;96022.13;5037769;28;20174;-61
2021/05/14 10:50:56;;;;;;;1.17;1.07;;;;;;;12.64;81.46;96020.84;5037340;28;20212;-61
2021/05/14 10:56:17;;;;;;;1.33;1.33;;;;;;;12.90;84.10;96017.22;5037296;28;20240;-61
2021/05/14 10:59:01;;;;;;;0.90;0.90;;;;;;;12.89;74.61;96013.81;5023071;28;20182;-61
2021/05/14 11:01:42;;;;;;;1.10;1.00;;;;;;;13.01;75.42;96012.78;5018273;28;20242;-62
2021/05/14 11:04:10;;;;;;;1.00;1.00;;;;;;;12.75;75.54;96004.03;5020689;28;20576;-61
2021/05/14 11:06:48;;;;;;;1.33;1.23;;;;;;;12.87;78.94;96009.88;5036047;28;20232;-61
2021/05/14 11:09:15;;;;;;;1.30;1.20;;;;;;;12.88;74.50;96003.53;5036696;28;20186;-62
2021/05/14 11:12:01;;;;;;;1.13;1.13;;;;;;;12.88;71.89;96004.31;5036575;28;20269;-62
2021/05/14 11:14:47;;;;;;;0.73;0.73;;;;;;;12.89;72.88;96007.75;5035847;28;20195;-60
2021/05/14 11:17:15;;;;;;;1.23;1.13;;;;;;;12.77;72.46;96004.56;5035565;28;20612;-62
2021/05/14 11:19:48;;;;;;;0.90;0.90;;;;;;;12.88;74.50;96004.31;5036671;28;20642;-62
2021/05/14 11:22:24;;;;;;;0.90;0.90;;;;;;;13.03;70.45;96000.16;5036615;28;20221;-62
2021/05/14 11:25:14;;;;;;;2.03;1.07;;;;;;;13.16;72.97;96000.44;5036960;28;20184;-61
2021/05/14 11:27:42;;;;;;;1.47;1.37;;;;;;;13.28;69.26;95997.56;5024599;28;20261;-62
2021/05/14 11:30:09;;;;;;;1.70;1.60;;;;;;;13.47;72.79;95993.38;5019595;28;20662;-61
2021/05/14 11:32:38;;;;;;;1.00;1.00;;;;;;;13.47;70.20;95985.47;5032575;28;20191;-62
2021/05/14 11:35:18;;;;;;;0.90;0.90;;;;;;;13.44;69.37;95980.72;5033342;28;20203;-61
2021/05/14 11:37:52;;;;;;;1.17;0.97;;;;;;;13.59;68.40;95990.47;5033073;28;20198;-61
2021/05/14 11:40:19;;;;;;;0.90;0.90;;;;;;;13.51;65.82;95981.25;5033262;28;20171;-62
2021/05/14 11:42:50;;;;;;;0.70;0.70;;;;;;;13.43;66.49;95988.91;5033917;28;20269;-61
2021/05/14 11:45:19;;;;;;;0.80;0.80;;;;;;;13.78;66.06;95983.59;5032568;28;20246;-62
2021/05/14 11:47:47;;;;;;;0.77;0.77;;;;;;;14.14;64.88;95979.84;5033472;28;20710;-61